Terminal Aerodrome Forecast
Issued by NWS

Home | Current Version | Previous Version | Graphics & Text | Print | Product List | Glossary On
Versions: 1 2 3 4 5 6 7 8 9 10 11 12 13 14 15 16 17 18
000
FTUS43 KGRB 241600 AAA
TAFAUW
TAF AMD
KAUW 241602Z 2416/2512 27012G18KT P6SM BKN020 BKN040
     FM241700 29014G20KT P6SM SCT020 BKN035
     FM241800 30016G28KT P6SM SCT035 BKN050
     FM250100 31012KT P6SM SCT035
     FM250500 31006KT P6SM SCT030 BKN150=

USA.gov is the U.S. government's official web portal to all federal, state and local government web resources and services.